sensor_id;sensor_type;location;lat;lon;timestamp;pressure;altitude;pressure_sealevel;temperature;humidity
55990;BME280;41875;55.806;38.082;2022-08-03T00:00:31;99470.97;;;23.96;39.73
55990;BME280;41875;55.806;38.082;2022-08-03T00:03:00;99468.47;;;23.95;40.19
55990;BME280;41875;55.806;38.082;2022-08-03T00:05:28;99463.19;;;23.49;41.18
55990;BME280;41875;55.806;38.082;2022-08-03T00:07:58;99474.84;;;23.66;40.82
55990;BME280;41875;55.806;38.082;2022-08-03T00:10:27;99471.28;;;23.66;41.53
55990;BME280;41875;55.806;38.082;2022-08-03T00:12:57;99472.13;;;23.66;39.76
55990;BME280;41875;55.806;38.082;2022-08-03T00:15:26;99469.72;;;23.36;42.33
55990;BME280;41875;55.806;38.082;2022-08-03T00:17:54;99470.97;;;23.16;42.51
55990;BME280;41875;55.806;38.082;2022-08-03T00:20:22;99469.91;;;23.29;42.73
55990;BME280;41875;55.806;38.082;2022-08-03T00:22:51;99470.09;;;22.81;43.41
55990;BME280;41875;55.806;38.082;2022-08-03T00:25:19;99469.72;;;23.36;42.68
55990;BME280;41875;55.806;38.082;2022-08-03T00:27:47;99471.63;;;23.52;41.66
55990;BME280;41875;55.806;38.082;2022-08-03T00:30:17;99470.72;;;23.47;40.95
55990;BME280;41875;55.806;38.082;2022-08-03T00:32:46;99477.84;;;23.53;41.18
55990;BME280;41875;55.806;38.082;2022-08-03T00:35:15;99476.78;;;23.54;41.51
55990;BME280;41875;55.806;38.082;2022-08-03T00:38:04;99470.41;;;23.43;41.99
55990;BME280;41875;55.806;38.082;2022-08-03T00:40:32;99471.13;;;23.09;42.75
55990;BME280;41875;55.806;38.082;2022-08-03T00:43:02;99470.41;;;22.85;44.22
55990;BME280;41875;55.806;38.082;2022-08-03T00:45:32;99475.72;;;22.39;45.44
55990;BME280;41875;55.806;38.082;2022-08-03T00:48:01;99473.03;;;22.51;45.26
55990;BME280;41875;55.806;38.082;2022-08-03T00:50:30;99464.97;;;22.68;44.59
55990;BME280;41875;55.806;38.082;2022-08-03T00:53:01;99467.22;;;22.06;46.47
55990;BME280;41875;55.806;38.082;2022-08-03T00:55:30;99470.78;;;22.24;46.03
55990;BME280;41875;55.806;38.082;2022-08-03T00:57:58;99466.56;;;22.28;45.39
55990;BME280;41875;55.806;38.082;2022-08-03T01:00:32;99464.00;;;22.33;45.64
55990;BME280;41875;55.806;38.082;2022-08-03T01:03:02;99464.06;;;22.62;44.96
55990;BME280;41875;55.806;38.082;2022-08-03T01:05:31;99468.94;;;22.77;44.03
55990;BME280;41875;55.806;38.082;2022-08-03T01:08:01;99459.75;;;22.78;44.36
55990;BME280;41875;55.806;38.082;2022-08-03T01:10:32;99462.72;;;22.77;44.10
55990;BME280;41875;55.806;38.082;2022-08-03T01:13:06;99462.28;;;22.97;41.97
55990;BME280;41875;55.806;38.082;2022-08-03T01:16:00;99457.16;;;22.83;42.93
55990;BME280;41875;55.806;38.082;2022-08-03T01:18:31;99458.28;;;22.71;44.37
55990;BME280;41875;55.806;38.082;2022-08-03T01:21:06;99466.31;;;22.53;43.86
55990;BME280;41875;55.806;38.082;2022-08-03T01:23:42;99461.50;;;22.84;43.88
55990;BME280;41875;55.806;38.082;2022-08-03T01:26:21;99458.28;;;22.18;45.91
55990;BME280;41875;55.806;38.082;2022-08-03T01:29:03;99459.22;;;22.12;45.95
55990;BME280;41875;55.806;38.082;2022-08-03T01:31:38;99461.19;;;21.57;47.57
55990;BME280;41875;55.806;38.082;2022-08-03T01:34:32;99456.28;;;22.13;45.78
55990;BME280;41875;55.806;38.082;2022-08-03T01:37:02;99460.97;;;22.06;46.45
55990;BME280;41875;55.806;38.082;2022-08-03T01:39:33;99456.41;;;21.95;46.78
55990;BME280;41875;55.806;38.082;2022-08-03T01:42:05;99462.38;;;22.20;44.95
55990;BME280;41875;55.806;38.082;2022-08-03T01:44:37;99467.19;;;22.42;45.54
55990;BME280;41875;55.806;38.082;2022-08-03T01:47:07;99465.16;;;22.37;45.54
55990;BME280;41875;55.806;38.082;2022-08-03T01:49:38;99468.88;;;22.60;45.35
55990;BME280;41875;55.806;38.082;2022-08-03T01:52:07;99462.75;;;22.94;43.40
55990;BME280;41875;55.806;38.082;2022-08-03T01:54:39;99460.31;;;23.21;41.17
55990;BME280;41875;55.806;38.082;2022-08-03T01:57:09;99463.13;;;22.97;43.08
55990;BME280;41875;55.806;38.082;2022-08-03T01:59:37;99474.56;;;22.47;45.27
55990;BME280;41875;55.806;38.082;2022-08-03T02:02:08;99470.03;;;22.00;46.76
55990;BME280;41875;55.806;38.082;2022-08-03T02:04:59;99468.50;;;21.80;47.48
55990;BME280;41875;55.806;38.082;2022-08-03T02:07:28;99472.94;;;21.86;47.42
55990;BME280;41875;55.806;38.082;2022-08-03T02:09:58;99466.09;;;22.31;45.93
55990;BME280;41875;55.806;38.082;2022-08-03T02:12:29;99478.53;;;23.14;43.77
55990;BME280;41875;55.806;38.082;2022-08-03T02:15:18;99466.53;;;23.56;41.37
55990;BME280;41875;55.806;38.082;2022-08-03T02:17:48;99469.34;;;23.44;41.14
55990;BME280;41875;55.806;38.082;2022-08-03T02:20:17;99471.72;;;24.14;40.05
55990;BME280;41875;55.806;38.082;2022-08-03T02:22:46;99476.53;;;25.23;38.68
55990;BME280;41875;55.806;38.082;2022-08-03T02:25:14;99472.25;;;26.56;35.74
55990;BME280;41875;55.806;38.082;2022-08-03T02:27:45;99466.47;;;27.52;34.21
55990;BME280;41875;55.806;38.082;2022-08-03T02:30:15;99471.03;;;27.98;33.99
55990;BME280;41875;55.806;38.082;2022-08-03T02:32:47;99466.16;;;27.07;35.14
55990;BME280;41875;55.806;38.082;2022-08-03T02:35:20;99482.72;;;27.00;35.14
55990;BME280;41875;55.806;38.082;2022-08-03T02:37:51;99487.38;;;26.36;36.54
55990;BME280;41875;55.806;38.082;2022-08-03T02:40:19;99479.88;;;25.63;37.89
55990;BME280;41875;55.806;38.082;2022-08-03T02:42:50;99486.75;;;25.43;37.93
55990;BME280;41875;55.806;38.082;2022-08-03T02:45:20;99481.88;;;25.18;38.29
55990;BME280;41875;55.806;38.082;2022-08-03T02:47:51;99482.66;;;24.86;38.38
55990;BME280;41875;55.806;38.082;2022-08-03T02:50:22;99487.81;;;24.65;39.10
55990;BME280;41875;55.806;38.082;2022-08-03T02:52:52;99486.63;;;24.56;38.86
55990;BME280;41875;55.806;38.082;2022-08-03T02:55:21;99481.19;;;24.33;39.51
55990;BME280;41875;55.806;38.082;2022-08-03T02:57:52;99487.38;;;24.29;39.71
55990;BME280;41875;55.806;38.082;2022-08-03T03:00:21;99487.19;;;24.35;39.52
55990;BME280;41875;55.806;38.082;2022-08-03T03:02:55;99485.75;;;24.50;39.45
55990;BME280;41875;55.806;38.082;2022-08-03T03:05:26;99490.53;;;24.87;38.83
55990;BME280;41875;55.806;38.082;2022-08-03T03:08:16;99492.56;;;25.30;38.01
55990;BME280;41875;55.806;38.082;2022-08-03T03:10:52;99495.03;;;26.44;35.72
55990;BME280;41875;55.806;38.082;2022-08-03T03:13:22;99490.38;;;27.29;34.81
55990;BME280;41875;55.806;38.082;2022-08-03T03:15:51;99496.09;;;27.74;34.81
55990;BME280;41875;55.806;38.082;2022-08-03T03:18:20;99494.13;;;28.21;33.71
55990;BME280;41875;55.806;38.082;2022-08-03T03:20:50;99493.84;;;28.28;32.56
55990;BME280;41875;55.806;38.082;2022-08-03T03:23:19;99494.91;;;28.42;33.30
55990;BME280;41875;55.806;38.082;2022-08-03T03:25:48;99495.25;;;28.15;32.44
55990;BME280;41875;55.806;38.082;2022-08-03T03:28:17;99496.94;;;27.69;34.00
55990;BME280;41875;55.806;38.082;2022-08-03T03:30:45;99494.97;;;27.08;35.29
55990;BME280;41875;55.806;38.082;2022-08-03T03:33:19;99504.13;;;26.81;36.06
55990;BME280;41875;55.806;38.082;2022-08-03T03:35:47;99497.63;;;26.19;37.09
55990;BME280;41875;55.806;38.082;2022-08-03T03:38:17;99505.72;;;25.76;38.32
55990;BME280;41875;55.806;38.082;2022-08-03T03:40:46;99505.53;;;25.50;38.90
55990;BME280;41875;55.806;38.082;2022-08-03T03:43:17;99498.59;;;25.37;39.57
55990;BME280;41875;55.806;38.082;2022-08-03T03:45:45;99496.66;;;25.97;38.25
55990;BME280;41875;55.806;38.082;2022-08-03T03:48:14;99508.56;;;25.31;39.42
55990;BME280;41875;55.806;38.082;2022-08-03T03:50:43;99507.72;;;24.54;41.91
55990;BME280;41875;55.806;38.082;2022-08-03T03:53:12;99516.03;;;24.91;41.04
55990;BME280;41875;55.806;38.082;2022-08-03T03:55:43;99513.34;;;24.08;43.01
55990;BME280;41875;55.806;38.082;2022-08-03T03:58:29;99517.81;;;24.19;43.00
55990;BME280;41875;55.806;38.082;2022-08-03T04:00:57;99516.63;;;24.71;42.01
55990;BME280;41875;55.806;38.082;2022-08-03T04:03:26;99515.50;;;24.28;42.70
55990;BME280;41875;55.806;38.082;2022-08-03T04:05:54;99516.63;;;25.21;40.76
55990;BME280;41875;55.806;38.082;2022-08-03T04:08:39;99517.75;;;26.28;38.94
55990;BME280;41875;55.806;38.082;2022-08-03T04:11:27;99518.00;;;25.51;40.18
55990;BME280;41875;55.806;38.082;2022-08-03T04:13:59;99523.97;;;24.98;41.63
55990;BME280;41875;55.806;38.082;2022-08-03T04:16:29;99521.75;;;25.17;41.63
55990;BME280;41875;55.806;38.082;2022-08-03T04:19:00;99532.38;;;25.51;40.72
55990;BME280;41875;55.806;38.082;2022-08-03T04:21:29;99521.41;;;26.06;39.39
55990;BME280;41875;55.806;38.082;2022-08-03T04:23:58;99521.63;;;25.34;40.76
55990;BME280;41875;55.806;38.082;2022-08-03T04:26:29;99521.84;;;25.55;40.72
55990;BME280;41875;55.806;38.082;2022-08-03T04:28:58;99534.41;;;26.42;38.70
55990;BME280;41875;55.806;38.082;2022-08-03T04:31:28;99528.38;;;26.35;38.70
55990;BME280;41875;55.806;38.082;2022-08-03T04:33:57;99526.59;;;26.61;38.58
55990;BME280;41875;55.806;38.082;2022-08-03T04:36:26;99530.41;;;26.60;38.15
55990;BME280;41875;55.806;38.082;2022-08-03T04:38:59;99532.63;;;26.15;39.58
55990;BME280;41875;55.806;38.082;2022-08-03T04:41:30;99545.31;;;26.52;39.22
55990;BME280;41875;55.806;38.082;2022-08-03T04:44:19;99537.25;;;26.20;39.25
55990;BME280;41875;55.806;38.082;2022-08-03T04:46:54;99549.13;;;26.56;39.52
55990;BME280;41875;55.806;38.082;2022-08-03T04:49:23;99538.78;;;26.53;38.81
55990;BME280;41875;55.806;38.082;2022-08-03T04:51:52;99543.50;;;26.73;38.37
55990;BME280;41875;55.806;38.082;2022-08-03T04:54:20;99545.13;;;26.69;38.68
55990;BME280;41875;55.806;38.082;2022-08-03T04:56:50;99535.00;;;27.38;37.26
55990;BME280;41875;55.806;38.082;2022-08-03T04:59:22;99531.16;;;27.19;37.52
55990;BME280;41875;55.806;38.082;2022-08-03T05:01:55;99539.13;;;26.67;38.65
55990;BME280;41875;55.806;38.082;2022-08-03T05:04:24;99542.69;;;26.73;38.53
55990;BME280;41875;55.806;38.082;2022-08-03T05:06:52;99532.47;;;26.90;38.06
55990;BME280;41875;55.806;38.082;2022-08-03T05:09:21;99537.69;;;27.23;37.67
55990;BME280;41875;55.806;38.082;2022-08-03T05:12:11;99535.84;;;27.54;36.80
55990;BME280;41875;55.806;38.082;2022-08-03T05:14:39;99536.91;;;27.95;36.50
55990;BME280;41875;55.806;38.082;2022-08-03T05:17:08;99542.56;;;27.21;37.99
55990;BME280;41875;55.806;38.082;2022-08-03T05:19:36;99532.59;;;27.68;36.80
55990;BME280;41875;55.806;38.082;2022-08-03T05:22:04;99531.50;;;27.64;37.34
55990;BME280;41875;55.806;38.082;2022-08-03T05:24:32;99532.31;;;27.75;36.76
55990;BME280;41875;55.806;38.082;2022-08-03T05:27:01;99534.19;;;27.90;36.54
55990;BME280;41875;55.806;38.082;2022-08-03T05:29:31;99538.00;;;27.94;36.14
55990;BME280;41875;55.806;38.082;2022-08-03T05:31:59;99540.44;;;27.95;36.32
55990;BME280;41875;55.806;38.082;2022-08-03T05:34:34;99547.28;;;27.77;37.00
55990;BME280;41875;55.806;38.082;2022-08-03T05:37:04;99546.44;;;27.51;37.06
55990;BME280;41875;55.806;38.082;2022-08-03T05:39:47;99545.09;;;27.95;36.83
55990;BME280;41875;55.806;38.082;2022-08-03T05:42:15;99543.09;;;28.42;35.22
55990;BME280;41875;55.806;38.082;2022-08-03T05:44:45;99541.16;;;28.58;34.97
55990;BME280;41875;55.806;38.082;2022-08-03T05:47:13;99546.75;;;28.87;34.29
55990;BME280;41875;55.806;38.082;2022-08-03T05:49:42;99546.56;;;28.63;33.96
55990;BME280;41875;55.806;38.082;2022-08-03T05:52:10;99538.09;;;28.75;34.03
55990;BME280;41875;55.806;38.082;2022-08-03T05:54:45;99549.22;;;28.89;34.27
55990;BME280;41875;55.806;38.082;2022-08-03T05:57:23;99549.94;;;29.10;33.84
55990;BME280;41875;55.806;38.082;2022-08-03T05:59:53;99547.75;;;29.07;33.67
55990;BME280;41875;55.806;38.082;2022-08-03T06:02:24;99549.84;;;29.26;33.59
55990;BME280;41875;55.806;38.082;2022-08-03T06:04:52;99539.84;;;29.50;33.14
55990;BME280;41875;55.806;38.082;2022-08-03T06:07:21;99538.78;;;29.81;32.56
55990;BME280;41875;55.806;38.082;2022-08-03T06:09:53;99546.53;;;30.27;31.33
55990;BME280;41875;55.806;38.082;2022-08-03T06:12:44;99546.84;;;30.50;30.57
55990;BME280;41875;55.806;38.082;2022-08-03T06:15:16;99540.03;;;30.48;31.25
55990;BME280;41875;55.806;38.082;2022-08-03T06:17:48;99532.53;;;29.46;33.28
55990;BME280;41875;55.806;38.082;2022-08-03T06:20:27;99546.06;;;29.91;32.58
55990;BME280;41875;55.806;38.082;2022-08-03T06:22:56;99541.88;;;29.34;32.96
55990;BME280;41875;55.806;38.082;2022-08-03T06:25:27;99541.25;;;29.77;32.37
55990;BME280;41875;55.806;38.082;2022-08-03T06:27:56;99533.78;;;29.59;32.98
55990;BME280;41875;55.806;38.082;2022-08-03T06:30:26;99537.66;;;29.08;34.60
55990;BME280;41875;55.806;38.082;2022-08-03T06:32:58;99536.69;;;29.28;32.94
55990;BME280;41875;55.806;38.082;2022-08-03T06:35:34;99545.91;;;30.11;32.25
55990;BME280;41875;55.806;38.082;2022-08-03T06:38:07;99550.03;;;30.82;31.14
55990;BME280;41875;55.806;38.082;2022-08-03T06:40:35;99555.84;;;30.02;31.58
55990;BME280;41875;55.806;38.082;2022-08-03T06:43:05;99553.66;;;30.77;30.73
55990;BME280;41875;55.806;38.082;2022-08-03T06:45:39;99547.94;;;30.54;30.70
55990;BME280;41875;55.806;38.082;2022-08-03T06:48:08;99554.38;;;30.10;30.92
55990;BME280;41875;55.806;38.082;2022-08-03T06:50:37;99557.91;;;30.64;30.61
55990;BME280;41875;55.806;38.082;2022-08-03T06:53:08;99555.22;;;30.83;29.71
55990;BME280;41875;55.806;38.082;2022-08-03T06:55:47;99547.41;;;31.86;28.89
55990;BME280;41875;55.806;38.082;2022-08-03T06:58:20;99551.41;;;30.60;30.49
55990;BME280;41875;55.806;38.082;2022-08-03T07:00:50;99559.59;;;31.61;28.21
55990;BME280;41875;55.806;38.082;2022-08-03T07:03:19;99556.34;;;30.58;30.02
55990;BME280;41875;55.806;38.082;2022-08-03T07:05:47;99559.22;;;31.10;28.85
55990;BME280;41875;55.806;38.082;2022-08-03T07:08:17;99552.63;;;31.69;27.69
55990;BME280;41875;55.806;38.082;2022-08-03T07:11:00;99550.53;;;31.80;27.79
55990;BME280;41875;55.806;38.082;2022-08-03T07:13:29;99544.56;;;32.52;27.29
55990;BME280;41875;55.806;38.082;2022-08-03T07:15:59;99556.22;;;32.58;26.05
55990;BME280;41875;55.806;38.082;2022-08-03T07:18:28;99549.91;;;32.16;27.26
55990;BME280;41875;55.806;38.082;2022-08-03T07:20:56;99556.97;;;32.03;27.02
55990;BME280;41875;55.806;38.082;2022-08-03T07:23:24;99566.78;;;31.19;28.62
55990;BME280;41875;55.806;38.082;2022-08-03T07:25:52;99560.91;;;30.38;29.10
55990;BME280;41875;55.806;38.082;2022-08-03T07:28:21;99556.50;;;31.10;29.21
55990;BME280;41875;55.806;38.082;2022-08-03T07:30:49;99561.81;;;31.40;28.25
55990;BME280;41875;55.806;38.082;2022-08-03T07:33:19;99564.38;;;30.93;28.27
55990;BME280;41875;55.806;38.082;2022-08-03T07:35:47;99561.16;;;32.14;27.28
55990;BME280;41875;55.806;38.082;2022-08-03T07:38:16;99562.13;;;32.51;25.39
55990;BME280;41875;55.806;38.082;2022-08-03T07:40:46;99551.91;;;33.08;25.19
55990;BME280;41875;55.806;38.082;2022-08-03T07:43:15;99551.94;;;31.77;25.64
55990;BME280;41875;55.806;38.082;2022-08-03T07:45:43;99560.94;;;31.25;26.69
55990;BME280;41875;55.806;38.082;2022-08-03T07:48:11;99559.59;;;32.41;24.58
55990;BME280;41875;55.806;38.082;2022-08-03T07:50:41;99567.50;;;32.43;24.20
55990;BME280;41875;55.806;38.082;2022-08-03T07:53:09;99559.78;;;32.59;24.45
55990;BME280;41875;55.806;38.082;2022-08-03T07:55:38;99560.59;;;32.73;23.93
55990;BME280;41875;55.806;38.082;2022-08-03T07:58:08;99568.72;;;32.92;22.59
55990;BME280;41875;55.806;38.082;2022-08-03T08:00:38;99571.38;;;32.83;22.54
55990;BME280;41875;55.806;38.082;2022-08-03T08:03:06;99568.25;;;32.15;23.79
55990;BME280;41875;55.806;38.082;2022-08-03T08:05:36;99574.63;;;31.97;23.55
55990;BME280;41875;55.806;38.082;2022-08-03T08:08:06;99572.19;;;33.21;23.15
55990;BME280;41875;55.806;38.082;2022-08-03T08:10:34;99572.34;;;33.84;21.69
55990;BME280;41875;55.806;38.082;2022-08-03T08:13:03;99563.66;;;33.22;22.00
55990;BME280;41875;55.806;38.082;2022-08-03T08:15:31;99567.88;;;33.28;22.26
55990;BME280;41875;55.806;38.082;2022-08-03T08:18:00;99560.50;;;33.15;23.44
55990;BME280;41875;55.806;38.082;2022-08-03T08:20:29;99583.44;;;32.96;23.04
55990;BME280;41875;55.806;38.082;2022-08-03T08:23:04;99569.53;;;32.79;23.12
55990;BME280;41875;55.806;38.082;2022-08-03T08:25:54;99565.72;;;33.17;23.70
55990;BME280;41875;55.806;38.082;2022-08-03T08:28:23;99576.44;;;33.41;23.14
55990;BME280;41875;55.806;38.082;2022-08-03T08:30:59;99562.06;;;33.44;22.44
55990;BME280;41875;55.806;38.082;2022-08-03T08:33:27;99565.47;;;32.62;23.68
55990;BME280;41875;55.806;38.082;2022-08-03T08:36:16;99553.06;;;32.65;23.56
55990;BME280;41875;55.806;38.082;2022-08-03T08:38:44;99550.81;;;34.40;21.90
55990;BME280;41875;55.806;38.082;2022-08-03T08:41:14;99560.19;;;34.88;21.22
55990;BME280;41875;55.806;38.082;2022-08-03T08:43:42;99550.63;;;34.77;21.46
55990;BME280;41875;55.806;38.082;2022-08-03T08:46:11;99560.63;;;34.64;20.77
55990;BME280;41875;55.806;38.082;2022-08-03T08:48:50;99560.13;;;34.22;21.51
55990;BME280;41875;55.806;38.082;2022-08-03T08:51:19;99566.88;;;34.47;21.22
55990;BME280;41875;55.806;38.082;2022-08-03T08:53:48;99550.16;;;33.94;22.05
55990;BME280;41875;55.806;38.082;2022-08-03T08:56:19;99565.97;;;32.92;23.55
55990;BME280;41875;55.806;38.082;2022-08-03T08:58:52;99552.34;;;32.45;23.83
55990;BME280;41875;55.806;38.082;2022-08-03T09:01:21;99558.47;;;33.57;22.95
55990;BME280;41875;55.806;38.082;2022-08-03T09:03:49;99552.84;;;34.48;21.78
55990;BME280;41875;55.806;38.082;2022-08-03T09:06:20;99549.66;;;34.32;22.42
55990;BME280;41875;55.806;38.082;2022-08-03T09:08:48;99565.50;;;33.72;22.54
55990;BME280;41875;55.806;38.082;2022-08-03T09:11:21;99570.25;;;33.58;23.22
55990;BME280;41875;55.806;38.082;2022-08-03T09:14:10;99552.69;;;33.91;22.80
55990;BME280;41875;55.806;38.082;2022-08-03T09:16:58;99562.22;;;33.39;23.09
55990;BME280;41875;55.806;38.082;2022-08-03T09:19:28;99567.25;;;33.09;23.84
55990;BME280;41875;55.806;38.082;2022-08-03T09:22:07;99571.69;;;32.82;24.36
55990;BME280;41875;55.806;38.082;2022-08-03T09:24:35;99570.16;;;33.26;23.75
55990;BME280;41875;55.806;38.082;2022-08-03T09:27:09;99563.34;;;34.15;23.04
55990;BME280;41875;55.806;38.082;2022-08-03T09:29:39;99559.09;;;33.54;23.47
55990;BME280;41875;55.806;38.082;2022-08-03T09:32:08;99556.69;;;33.84;23.21
55990;BME280;41875;55.806;38.082;2022-08-03T09:34:37;99560.25;;;33.03;24.35
55990;BME280;41875;55.806;38.082;2022-08-03T09:37:07;99562.13;;;34.30;22.77
55990;BME280;41875;55.806;38.082;2022-08-03T09:39:39;99562.34;;;33.20;23.95
55990;BME280;41875;55.806;38.082;2022-08-03T09:42:09;99564.75;;;32.85;24.02
55990;BME280;41875;55.806;38.082;2022-08-03T09:44:41;99555.59;;;32.89;23.75
55990;BME280;41875;55.806;38.082;2022-08-03T09:47:10;99563.19;;;32.22;25.15
55990;BME280;41875;55.806;38.082;2022-08-03T09:49:39;99562.34;;;32.41;24.73
55990;BME280;41875;55.806;38.082;2022-08-03T09:52:11;99555.16;;;33.10;23.91
55990;BME280;41875;55.806;38.082;2022-08-03T09:55:00;99557.22;;;33.41;23.98
55990;BME280;41875;55.806;38.082;2022-08-03T09:57:31;99553.03;;;33.89;23.31
55990;BME280;41875;55.806;38.082;2022-08-03T10:00:05;99555.38;;;33.36;24.07
55990;BME280;41875;55.806;38.082;2022-08-03T10:02:40;99549.72;;;34.41;22.85
55990;BME280;41875;55.806;38.082;2022-08-03T10:05:09;99560.00;;;34.27;22.33
55990;BME280;41875;55.806;38.082;2022-08-03T10:07:46;99551.19;;;35.05;21.80
55990;BME280;41875;55.806;38.082;2022-08-03T10:10:15;99549.84;;;33.96;22.83
55990;BME280;41875;55.806;38.082;2022-08-03T10:12:58;99552.81;;;33.85;23.35
55990;BME280;41875;55.806;38.082;2022-08-03T10:15:27;99548.03;;;34.89;22.00
55990;BME280;41875;55.806;38.082;2022-08-03T10:18:15;99560.72;;;35.25;21.51
55990;BME280;41875;55.806;38.082;2022-08-03T10:20:45;99560.13;;;34.53;21.74
55990;BME280;41875;55.806;38.082;2022-08-03T10:23:13;99555.72;;;34.12;22.88
55990;BME280;41875;55.806;38.082;2022-08-03T10:25:45;99557.16;;;33.78;23.44
55990;BME280;41875;55.806;38.082;2022-08-03T10:28:17;99563.69;;;33.91;22.88
55990;BME280;41875;55.806;38.082;2022-08-03T10:30:47;99562.94;;;33.99;22.74
55990;BME280;41875;55.806;38.082;2022-08-03T10:33:17;99557.00;;;33.83;22.65
55990;BME280;41875;55.806;38.082;2022-08-03T10:36:08;99557.19;;;33.86;22.58
55990;BME280;41875;55.806;38.082;2022-08-03T10:38:39;99562.91;;;33.31;23.65
55990;BME280;41875;55.806;38.082;2022-08-03T10:41:12;99554.91;;;33.80;22.89
55990;BME280;41875;55.806;38.082;2022-08-03T10:43:47;99555.03;;;34.38;21.84
55990;BME280;41875;55.806;38.082;2022-08-03T10:46:20;99551.72;;;34.18;22.61
55990;BME280;41875;55.806;38.082;2022-08-03T10:48:48;99560.53;;;34.38;22.14
55990;BME280;41875;55.806;38.082;2022-08-03T10:51:18;99563.13;;;34.02;22.99
55990;BME280;41875;55.806;38.082;2022-08-03T10:53:46;99561.69;;;33.82;22.31
55990;BME280;41875;55.806;38.082;2022-08-03T10:56:37;99561.63;;;34.77;21.59
55990;BME280;41875;55.806;38.082;2022-08-03T11:02:15;99562.09;;;33.30;22.83
55990;BME280;41875;55.806;38.082;2022-08-03T11:04:46;99560.16;;;33.44;23.38
55990;BME280;41875;55.806;38.082;2022-08-03T11:07:35;99567.13;;;34.28;22.25
55990;BME280;41875;55.806;38.082;2022-08-03T11:10:03;99565.78;;;35.50;20.53
55990;BME280;41875;55.806;38.082;2022-08-03T11:12:36;99554.38;;;33.32;22.10
55990;BME280;41875;55.806;38.082;2022-08-03T11:15:05;99561.56;;;33.05;22.79
55990;BME280;41875;55.806;38.082;2022-08-03T11:17:36;99562.84;;;34.13;21.42
55990;BME280;41875;55.806;38.082;2022-08-03T11:23:04;99556.13;;;32.91;22.97
55990;BME280;41875;55.806;38.082;2022-08-03T11:28:24;99546.41;;;34.79;21.55
55990;BME280;41875;55.806;38.082;2022-08-03T11:30:52;99562.66;;;35.60;20.73
55990;BME280;41875;55.806;38.082;2022-08-03T11:33:31;99552.28;;;34.06;21.48
55990;BME280;41875;55.806;38.082;2022-08-03T11:36:00;99549.78;;;34.18;22.24
55990;BME280;41875;55.806;38.082;2022-08-03T11:38:28;99544.34;;;35.12;21.02
55990;BME280;41875;55.806;38.082;2022-08-03T11:40:57;99546.31;;;36.20;20.21
55990;BME280;41875;55.806;38.082;2022-08-03T11:43:44;99553.41;;;35.65;20.64
55990;BME280;41875;55.806;38.082;2022-08-03T11:46:13;99551.28;;;35.70;20.46
55990;BME280;41875;55.806;38.082;2022-08-03T11:49:01;99549.78;;;36.47;20.21
55990;BME280;41875;55.806;38.082;2022-08-03T11:51:35;99541.94;;;36.79;18.75
55990;BME280;41875;55.806;38.082;2022-08-03T11:54:05;99555.44;;;36.81;18.39
55990;BME280;41875;55.806;38.082;2022-08-03T11:56:42;99542.81;;;35.93;19.92
55990;BME280;41875;55.806;38.082;2022-08-03T11:59:11;99546.41;;;34.62;21.31
55990;BME280;41875;55.806;38.082;2022-08-03T12:01:47;99549.38;;;35.27;21.33
55990;BME280;41875;55.806;38.082;2022-08-03T12:04:16;99553.91;;;35.40;21.02
55990;BME280;41875;55.806;38.082;2022-08-03T12:06:56;99536.94;;;35.12;21.08
55990;BME280;41875;55.806;38.082;2022-08-03T12:09:25;99540.00;;;35.19;20.96
55990;BME280;41875;55.806;38.082;2022-08-03T12:11:53;99535.31;;;35.11;21.92
55990;BME280;41875;55.806;38.082;2022-08-03T12:14:27;99539.78;;;34.31;21.93
55990;BME280;41875;55.806;38.082;2022-08-03T12:17:15;99532.69;;;34.97;21.54
55990;BME280;41875;55.806;38.082;2022-08-03T12:19:45;99545.97;;;35.30;20.69
55990;BME280;41875;55.806;38.082;2022-08-03T12:22:14;99542.56;;;35.68;20.51
55990;BME280;41875;55.806;38.082;2022-08-03T12:24:43;99540.47;;;35.13;20.85
55990;BME280;41875;55.806;38.082;2022-08-03T12:27:21;99542.09;;;35.40;20.61
55990;BME280;41875;55.806;38.082;2022-08-03T12:29:50;99545.47;;;35.72;20.58
55990;BME280;41875;55.806;38.082;2022-08-03T12:32:24;99542.44;;;35.38;20.62
55990;BME280;41875;55.806;38.082;2022-08-03T12:34:54;99544.06;;;35.39;21.12
55990;BME280;41875;55.806;38.082;2022-08-03T12:37:29;99546.63;;;35.27;20.94
55990;BME280;41875;55.806;38.082;2022-08-03T12:39:59;99546.44;;;35.76;20.76
55990;BME280;41875;55.806;38.082;2022-08-03T12:42:36;99544.50;;;35.41;20.94
55990;BME280;41875;55.806;38.082;2022-08-03T12:45:17;99538.09;;;33.81;22.75
55990;BME280;41875;55.806;38.082;2022-08-03T12:47:50;99537.47;;;35.88;20.64
55990;BME280;41875;55.806;38.082;2022-08-03T12:50:29;99553.50;;;36.42;19.98
55990;BME280;41875;55.806;38.082;2022-08-03T12:52:59;99540.97;;;35.15;21.12
55990;BME280;41875;55.806;38.082;2022-08-03T12:55:28;99547.22;;;34.22;22.13
55990;BME280;41875;55.806;38.082;2022-08-03T12:58:30;99559.44;;;35.49;20.99
55990;BME280;41875;55.806;38.082;2022-08-03T13:01:00;99560.25;;;35.23;20.87
55990;BME280;41875;55.806;38.082;2022-08-03T13:03:42;99556.00;;;34.33;22.16
55990;BME280;41875;55.806;38.082;2022-08-03T13:06:18;99553.19;;;33.93;22.08
55990;BME280;41875;55.806;38.082;2022-08-03T13:08:46;99549.84;;;33.96;22.61
55990;BME280;41875;55.806;38.082;2022-08-03T13:11:19;99562.94;;;33.99;22.85
55990;BME280;41875;55.806;38.082;2022-08-03T13:13:47;99556.03;;;35.08;21.65
55990;BME280;41875;55.806;38.082;2022-08-03T13:16:16;99556.69;;;35.14;21.36
55990;BME280;41875;55.806;38.082;2022-08-03T13:18:45;99558.78;;;35.08;21.18
55990;BME280;41875;55.806;38.082;2022-08-03T13:21:13;99559.31;;;33.89;22.43
55990;BME280;41875;55.806;38.082;2022-08-03T13:23:44;99556.88;;;34.19;22.47